Time;durP1;ratioP1;P1;durP2;ratioP2;P2;SDS_P1;SDS_P2;PMS_P1;PMS_P2;Temp;Humidity;BMP_temperature;BMP_pressure;BME280_temperature;BME280_humidity;BME280_pressure;Samples;Min_cycle;Max_cycle;Signal;HPM_P1;HPM_P2
2022/03/14 00:00:24;;;;;;;56.83;49.63;;;;;22.30;100642.00;;;;2079457;28;20296;-49
2022/03/14 00:01:25;;;;;;;47.28;42.22;;;;;22.30;100639.00;;;;2073206;28;20273;-49
2022/03/14 00:02:25;;;;;;;54.43;48.00;;;;;22.30;100645.00;;;;2070333;28;20759;-50
2022/03/14 00:03:26;;;;;;;46.57;41.47;;;;;22.30;100646.00;;;;2070600;28;20214;-49
2022/03/14 00:04:27;;;;;;;49.10;43.77;;;;;22.30;100650.00;;;;2070398;28;20214;-49
2022/03/14 00:05:31;;;;;;;51.47;45.88;;;;;22.30;100640.00;;;;2070424;28;20257;-50
2022/03/14 00:06:32;;;;;;;47.75;42.65;;;;;22.30;100635.00;;;;2072969;28;20227;-49
2022/03/14 00:07:36;;;;;;;51.65;45.88;;;;;22.30;100647.00;;;;2077739;28;20233;-49
2022/03/14 00:08:36;;;;;;;44.17;39.38;;;;;22.30;100648.00;;;;2074185;28;20283;-50
2022/03/14 00:09:36;;;;;;;47.03;41.93;;;;;22.30;100650.00;;;;2078086;28;20217;-49
2022/03/14 00:10:37;;;;;;;44.97;40.20;;;;;22.30;100658.00;;;;2077540;28;20236;-49
2022/03/14 00:11:37;;;;;;;46.03;41.13;;;;;22.30;100651.00;;;;2071025;28;20218;-50
2022/03/14 00:12:38;;;;;;;45.50;40.60;;;;;22.30;100654.00;;;;2074852;28;20229;-49
2022/03/14 00:13:39;;;;;;;44.00;39.45;;;;;22.30;100654.00;;;;2078444;28;20305;-49
2022/03/14 00:14:40;;;;;;;48.55;43.35;;;;;22.30;100652.00;;;;2078567;28;20209;-49
2022/03/14 00:15:41;;;;;;;42.43;36.87;;;;;22.30;100655.00;;;;2078068;28;20256;-48
2022/03/14 00:16:45;;;;;;;39.33;35.23;;;;;22.30;100658.00;;;;2076323;28;20214;-49
2022/03/14 00:17:47;;;;;;;38.30;34.17;;;;;22.30;100659.00;;;;2077874;28;20214;-49
2022/03/14 00:18:50;;;;;;;48.20;42.58;;;;;22.30;100655.00;;;;2076967;28;20216;-48
2022/03/14 00:19:50;;;;;;;41.95;36.53;;;;;22.30;100653.00;;;;2070325;28;20567;-50
2022/03/14 00:20:51;;;;;;;38.20;34.10;;;;;22.30;100654.00;;;;2069752;28;20253;-50
2022/03/14 00:21:51;;;;;;;38.97;34.93;;;;;22.30;100640.00;;;;2069319;28;20462;-50
2022/03/14 00:22:52;;;;;;;37.27;33.27;;;;;22.30;100656.00;;;;2069791;28;20269;-49
2022/03/14 00:23:54;;;;;;;37.20;33.35;;;;;22.30;100652.00;;;;2070224;28;20218;-49
2022/03/14 00:24:54;;;;;;;37.00;33.17;;;;;22.30;100648.00;;;;2070422;28;20228;-49
2022/03/14 00:25:54;;;;;;;38.67;33.03;;;;;22.20;100655.00;;;;2069662;28;20214;-50
2022/03/14 00:26:55;;;;;;;36.90;32.20;;;;;22.30;100664.00;;;;2068666;28;20218;-50
2022/03/14 00:27:55;;;;;;;40.97;36.57;;;;;22.30;100662.00;;;;2070077;28;20310;-50
2022/03/14 00:28:55;;;;;;;39.57;35.37;;;;;22.30;100663.00;;;;2070323;28;20226;-49
2022/03/14 00:29:56;;;;;;;35.47;31.80;;;;;22.30;100660.00;;;;2070758;28;20292;-49
2022/03/14 00:30:56;;;;;;;33.50;30.10;;;;;22.20;100663.00;;;;2071047;28;20309;-48
2022/03/14 00:31:58;;;;;;;37.00;33.27;;;;;22.20;100662.00;;;;2067288;28;20218;-49
2022/03/14 00:32:58;;;;;;;35.53;31.52;;;;;22.20;100667.00;;;;2072174;28;20226;-49
2022/03/14 00:33:58;;;;;;;37.43;33.43;;;;;22.20;100660.00;;;;2070694;28;20210;-50
2022/03/14 00:34:59;;;;;;;35.70;30.53;;;;;22.20;100674.00;;;;2072769;28;21122;-48
2022/03/14 00:35:59;;;;;;;31.40;28.00;;;;;22.20;100667.00;;;;2071624;28;20240;-48
2022/03/14 00:36:59;;;;;;;36.40;32.43;;;;;22.20;100672.00;;;;2068101;28;20214;-48
2022/03/14 00:38:00;;;;;;;36.67;32.67;;;;;22.20;100666.00;;;;2069975;28;20207;-49
2022/03/14 00:39:01;;;;;;;31.70;27.88;;;;;22.20;100665.00;;;;2070504;28;20210;-49
2022/03/14 00:40:07;;;;;;;33.00;29.53;;;;;22.20;100665.00;;;;2076475;28;20236;-50
2022/03/14 00:41:07;;;;;;;31.85;28.55;;;;;22.20;100669.00;;;;2078216;28;20214;-49
2022/03/14 00:42:08;;;;;;;31.27;27.83;;;;;22.20;100669.00;;;;2076301;28;20297;-49
2022/03/14 00:43:08;;;;;;;30.90;27.60;;;;;22.20;100672.00;;;;2078016;28;20654;-54
2022/03/14 00:44:09;;;;;;;29.20;26.20;;;;;22.20;100678.00;;;;2078608;28;20217;-49
2022/03/14 00:45:10;;;;;;;30.47;27.30;;;;;22.20;100668.00;;;;2078325;28;20201;-49
2022/03/14 00:46:10;;;;;;;28.17;25.33;;;;;22.20;100673.00;;;;2077618;28;20456;-49
2022/03/14 00:47:11;;;;;;;29.93;26.70;;;;;22.20;100666.00;;;;2071579;28;20218;-49
2022/03/14 00:48:11;;;;;;;32.70;29.23;;;;;22.20;100675.00;;;;2077643;28;20272;-49
2022/03/14 00:49:11;;;;;;;26.83;23.93;;;;;22.20;100673.00;;;;2069978;28;20218;-49
2022/03/14 00:50:12;;;;;;;32.03;28.60;;;;;22.20;100680.00;;;;2078222;28;20216;-49
2022/03/14 00:51:12;;;;;;;27.20;24.23;;;;;22.20;100681.00;;;;2078794;28;20301;-48
2022/03/14 00:52:12;;;;;;;30.57;27.27;;;;;22.20;100680.00;;;;2078148;28;20299;-49
2022/03/14 00:53:13;;;;;;;28.77;25.80;;;;;22.20;100678.00;;;;2077642;28;20218;-49
2022/03/14 00:54:13;;;;;;;26.47;23.70;;;;;22.20;100688.00;;;;2077958;28;20267;-49
2022/03/14 00:55:13;;;;;;;30.30;24.57;;;;;22.20;100689.00;;;;2077911;28;20696;-49
2022/03/14 00:56:14;;;;;;;24.70;22.10;;;;;22.20;100689.00;;;;2076946;28;20236;-49
2022/03/14 00:57:15;;;;;;;30.10;26.83;;;;;22.20;100691.00;;;;2077539;28;20224;-49
2022/03/14 00:58:16;;;;;;;25.83;23.10;;;;;22.10;100694.00;;;;2078406;28;20229;-49
2022/03/14 00:59:16;;;;;;;22.37;19.97;;;;;22.10;100689.00;;;;2078241;28;20739;-50
2022/03/14 01:00:16;;;;;;;30.83;27.57;;;;;22.10;100689.00;;;;2078182;28;20232;-49
2022/03/14 01:01:17;;;;;;;26.07;23.43;;;;;22.10;100693.00;;;;2078148;28;20272;-49
2022/03/14 01:02:17;;;;;;;23.93;21.03;;;;;22.10;100703.00;;;;2077823;28;20260;-49
2022/03/14 01:03:17;;;;;;;26.17;23.47;;;;;22.10;100707.00;;;;2078329;28;20224;-49
2022/03/14 01:04:18;;;;;;;24.90;22.20;;;;;22.10;100704.00;;;;2078046;28;20213;-49
2022/03/14 01:05:18;;;;;;;24.43;21.93;;;;;22.10;100707.00;;;;2077784;28;20206;-49
2022/03/14 01:06:19;;;;;;;22.47;20.10;;;;;22.10;100700.00;;;;2070507;28;20585;-49
2022/03/14 01:07:19;;;;;;;21.33;19.03;;;;;22.10;100709.00;;;;2069699;28;20464;-49
2022/03/14 01:08:20;;;;;;;24.83;22.23;;;;;22.10;100709.00;;;;2072114;28;20214;-49
2022/03/14 01:09:20;;;;;;;22.97;20.57;;;;;22.10;100707.00;;;;2071068;28;20263;-49
2022/03/14 01:10:21;;;;;;;22.03;19.73;;;;;22.10;100711.00;;;;2069955;28;20218;-49
2022/03/14 01:11:21;;;;;;;19.60;17.60;;;;;22.10;100711.00;;;;2068811;28;20214;-49
2022/03/14 01:12:21;;;;;;;22.87;20.03;;;;;22.10;100706.00;;;;2069759;28;20244;-49
2022/03/14 01:13:22;;;;;;;21.80;19.57;;;;;22.10;100703.00;;;;2069813;28;20225;-49
2022/03/14 01:14:22;;;;;;;21.80;19.60;;;;;22.10;100700.00;;;;2068942;28;20206;-49
2022/03/14 01:15:23;;;;;;;21.90;19.70;;;;;22.10;100709.00;;;;2067940;28;20214;-49
2022/03/14 01:16:23;;;;;;;22.13;19.93;;;;;22.10;100703.00;;;;2074674;28;20220;-49
2022/03/14 01:17:23;;;;;;;21.47;18.77;;;;;22.10;100700.00;;;;2077814;28;20201;-51
2022/03/14 01:18:25;;;;;;;20.77;18.67;;;;;22.10;100707.00;;;;2078186;28;20213;-49
2022/03/14 01:19:25;;;;;;;20.48;18.33;;;;;22.10;100701.00;;;;2076941;28;20247;-51
2022/03/14 01:20:26;;;;;;;18.80;16.77;;;;;22.10;100701.00;;;;2080917;28;20204;-50
2022/03/14 01:21:30;;;;;;;20.20;17.93;;;;;22.10;100702.00;;;;2082951;28;20201;-51
2022/03/14 01:22:30;;;;;;;19.27;17.27;;;;;22.10;100705.00;;;;2078056;28;20214;-49
2022/03/14 01:23:30;;;;;;;18.33;16.53;;;;;22.10;100701.00;;;;2077191;28;20212;-49
2022/03/14 01:24:34;;;;;;;20.77;18.67;;;;;22.10;100706.00;;;;2078568;28;20237;-50
2022/03/14 01:25:34;;;;;;;18.85;16.95;;;;;22.10;100709.00;;;;2077945;28;20213;-49
2022/03/14 01:26:34;;;;;;;20.43;18.23;;;;;22.10;100715.00;;;;2078467;28;20228;-49
2022/03/14 01:27:35;;;;;;;20.00;18.00;;;;;22.10;100724.00;;;;2078627;28;20248;-49
2022/03/14 01:28:35;;;;;;;18.10;16.30;;;;;22.00;100716.00;;;;2078461;28;20688;-49
2022/03/14 01:29:36;;;;;;;18.60;16.70;;;;;22.10;100724.00;;;;2078898;28;20213;-49
2022/03/14 01:30:37;;;;;;;17.23;15.43;;;;;22.10;100719.00;;;;2078533;28;20217;-49
2022/03/14 01:31:38;;;;;;;17.35;15.65;;;;;22.10;100729.00;;;;2077734;28;20225;-49
2022/03/14 01:32:38;;;;;;;18.97;16.97;;;;;22.10;100728.00;;;;2077247;28;20264;-49
2022/03/14 01:33:38;;;;;;;18.47;16.57;;;;;22.10;100732.00;;;;2077992;28;20251;-49
2022/03/14 01:34:39;;;;;;;17.30;15.57;;;;;22.10;100734.00;;;;2074027;28;20218;-49
2022/03/14 01:35:40;;;;;;;17.57;15.70;;;;;22.00;100738.00;;;;2068678;28;20215;-49
2022/03/14 01:36:40;;;;;;;17.15;15.45;;;;;22.00;100739.00;;;;2066199;28;20221;-49
2022/03/14 01:37:41;;;;;;;17.87;15.90;;;;;22.00;100746.00;;;;2069278;28;20276;-49
2022/03/14 01:38:41;;;;;;;17.97;16.13;;;;;22.00;100752.00;;;;2069725;28;20214;-49
2022/03/14 01:39:41;;;;;;;15.73;14.23;;;;;22.00;100742.00;;;;2069855;28;20272;-49
2022/03/14 01:40:42;;;;;;;16.50;14.80;;;;;22.00;100750.00;;;;2070087;28;20237;-49
2022/03/14 01:41:43;;;;;;;16.00;14.40;;;;;22.00;100752.00;;;;2069779;28;20249;-49
2022/03/14 01:42:43;;;;;;;15.90;14.30;;;;;22.00;100753.00;;;;2070211;28;20222;-49
2022/03/14 01:43:44;;;;;;;15.80;14.20;;;;;22.00;100740.00;;;;2070421;28;20869;-49
2022/03/14 01:44:46;;;;;;;16.13;14.48;;;;;22.00;100744.00;;;;2070654;28;20325;-49
2022/03/14 01:45:47;;;;;;;17.10;15.30;;;;;22.00;100749.00;;;;2069490;28;20222;-49
2022/03/14 01:46:48;;;;;;;15.05;13.50;;;;;22.00;100745.00;;;;2070503;28;20293;-49
2022/03/14 01:47:49;;;;;;;17.07;15.30;;;;;22.00;100743.00;;;;2074428;28;20513;-49
2022/03/14 01:48:50;;;;;;;17.43;15.70;;;;;22.00;100753.00;;;;2078562;28;20701;-49
2022/03/14 01:49:51;;;;;;;15.43;13.93;;;;;22.00;100763.00;;;;2077309;28;20305;-49
2022/03/14 01:50:52;;;;;;;14.55;13.05;;;;;22.00;100756.00;;;;2076860;28;20209;-49
2022/03/14 01:51:58;;;;;;;14.87;13.37;;;;;22.00;100759.00;;;;2076054;28;20671;-49
2022/03/14 01:52:59;;;;;;;16.02;14.32;;;;;22.00;100751.00;;;;2077895;28;20213;-49
2022/03/14 01:53:59;;;;;;;14.63;13.10;;;;;22.00;100752.00;;;;2077898;28;20221;-49
2022/03/14 01:55:00;;;;;;;13.53;12.20;;;;;22.00;100761.00;;;;2078133;28;20218;-49
2022/03/14 01:56:00;;;;;;;14.90;13.40;;;;;22.00;100762.00;;;;2068394;28;20210;-49
2022/03/14 01:57:00;;;;;;;15.30;13.70;;;;;22.00;100760.00;;;;2067985;28;21036;-49
2022/03/14 01:58:03;;;;;;;14.10;12.70;;;;;22.00;100754.00;;;;2070742;28;20702;-49
2022/03/14 01:59:03;;;;;;;14.32;12.52;;;;;22.00;100758.00;;;;2076622;28;20217;-49
2022/03/14 02:00:05;;;;;;;13.87;12.47;;;;;22.00;100757.00;;;;2077213;28;20213;-49
2022/03/14 02:01:05;;;;;;;14.57;13.05;;;;;22.00;100747.00;;;;2078367;28;20301;-49
2022/03/14 02:02:06;;;;;;;13.23;11.87;;;;;22.00;100756.00;;;;2078344;28;20209;-49
2022/03/14 02:03:07;;;;;;;12.77;11.37;;;;;22.00;100760.00;;;;2078413;28;20212;-49
2022/03/14 02:04:08;;;;;;;13.93;12.53;;;;;22.00;100758.00;;;;2078366;28;20445;-49
2022/03/14 02:05:09;;;;;;;14.10;12.70;;;;;22.00;100764.00;;;;2077914;28;20628;-50
2022/03/14 02:06:10;;;;;;;13.47;11.93;;;;;22.00;100758.00;;;;2076958;28;20302;-49
2022/03/14 02:07:10;;;;;;;12.85;11.55;;;;;22.00;100741.00;;;;2076921;28;20677;-49
2022/03/14 02:08:10;;;;;;;13.97;12.30;;;;;22.00;100748.00;;;;2068955;28;20366;-49
2022/03/14 02:09:11;;;;;;;12.50;11.30;;;;;22.00;100754.00;;;;2068949;28;20214;-49
2022/03/14 02:10:11;;;;;;;12.70;11.40;;;;;22.00;100753.00;;;;2069741;28;20294;-49
2022/03/14 02:11:11;;;;;;;12.03;10.93;;;;;22.00;100750.00;;;;2069748;28;20263;-49
2022/03/14 02:12:12;;;;;;;12.77;11.47;;;;;21.90;100748.00;;;;2072462;28;20205;-49
2022/03/14 02:13:12;;;;;;;12.27;11.03;;;;;22.00;100752.00;;;;2068968;28;20276;-49
2022/03/14 02:14:13;;;;;;;11.83;10.73;;;;;22.00;100749.00;;;;2068944;28;20535;-49
2022/03/14 02:15:13;;;;;;;13.50;12.00;;;;;21.90;100753.00;;;;2069484;28;20245;-49
2022/03/14 02:16:14;;;;;;;11.73;10.57;;;;;21.90;100759.00;;;;2069296;28;20210;-49
2022/03/14 02:17:19;;;;;;;11.90;10.70;;;;;21.90;100751.00;;;;2067906;28;20221;-49
2022/03/14 02:18:20;;;;;;;11.95;10.77;;;;;21.90;100752.00;;;;2069859;28;20242;-49
2022/03/14 02:19:20;;;;;;;12.70;10.90;;;;;21.90;100759.00;;;;2069554;28;20210;-49
2022/03/14 02:20:21;;;;;;;12.33;11.13;;;;;21.90;100758.00;;;;2070332;28;20206;-49
2022/03/14 02:21:21;;;;;;;11.53;10.33;;;;;21.90;100754.00;;;;2070220;28;20712;-49
2022/03/14 02:22:22;;;;;;;10.87;9.80;;;;;21.90;100754.00;;;;2067375;28;20214;-49
2022/03/14 02:23:22;;;;;;;11.07;9.97;;;;;21.90;100758.00;;;;2073813;28;20212;-49
2022/03/14 02:24:26;;;;;;;12.53;10.40;;;;;21.90;100762.00;;;;2077903;28;20205;-49
2022/03/14 02:25:27;;;;;;;10.73;9.73;;;;;21.90;100771.00;;;;2077100;28;20206;-49
2022/03/14 02:26:27;;;;;;;12.53;11.23;;;;;21.90;100770.00;;;;2077767;28;20293;-49
2022/03/14 02:27:27;;;;;;;10.30;9.40;;;;;21.90;100767.00;;;;2077752;28;20652;-49
2022/03/14 02:28:28;;;;;;;11.23;10.13;;;;;21.90;100769.00;;;;2077649;28;20637;-49
2022/03/14 02:29:28;;;;;;;10.50;9.50;;;;;21.90;100775.00;;;;2077211;28;20256;-49
2022/03/14 02:30:28;;;;;;;11.77;10.60;;;;;21.90;100769.00;;;;2077706;28;20217;-49
2022/03/14 02:31:29;;;;;;;10.67;9.57;;;;;21.80;100776.00;;;;2077255;28;20213;-49
2022/03/14 02:32:29;;;;;;;10.20;9.13;;;;;21.90;100766.00;;;;2077603;28;20252;-49
2022/03/14 02:33:30;;;;;;;10.27;8.70;;;;;21.90;100772.00;;;;2078602;28;20878;-49
2022/03/14 02:34:30;;;;;;;10.70;9.60;;;;;21.90;100772.00;;;;2076180;28;20626;-49
2022/03/14 02:35:32;;;;;;;10.60;9.43;;;;;21.90;100775.00;;;;2070836;28;20218;-49
2022/03/14 02:36:32;;;;;;;11.02;9.93;;;;;21.90;100775.00;;;;2071777;28;20301;-49
2022/03/14 02:37:33;;;;;;;10.20;8.87;;;;;21.90;100777.00;;;;2070961;28;21076;-49
2022/03/14 02:38:33;;;;;;;9.40;8.40;;;;;21.90;100784.00;;;;2071163;28;20221;-49
2022/03/14 02:39:34;;;;;;;10.43;9.33;;;;;21.90;100781.00;;;;2076120;28;20213;-49
2022/03/14 02:40:34;;;;;;;9.70;8.70;;;;;21.90;100784.00;;;;2080126;28;20225;-49
2022/03/14 02:41:36;;;;;;;10.53;8.97;;;;;21.90;100781.00;;;;2077317;28;20460;-49
2022/03/14 02:42:36;;;;;;;10.90;9.75;;;;;21.90;100784.00;;;;2069409;28;20218;-49
2022/03/14 02:43:37;;;;;;;9.60;8.70;;;;;21.90;100787.00;;;;2072024;28;20226;-49
2022/03/14 02:44:42;;;;;;;8.57;7.77;;;;;21.90;100784.00;;;;2071423;28;20461;-49
2022/03/14 02:45:43;;;;;;;10.60;9.60;;;;;21.90;100788.00;;;;2069891;28;20677;-49
2022/03/14 02:46:44;;;;;;;9.32;8.43;;;;;21.90;100788.00;;;;2077154;28;20879;-48
2022/03/14 02:47:44;;;;;;;8.63;7.83;;;;;21.90;100793.00;;;;2077220;28;20240;-49
2022/03/14 02:48:45;;;;;;;9.33;8.43;;;;;21.90;100787.00;;;;2079119;28;20677;-49
2022/03/14 02:49:45;;;;;;;9.40;8.43;;;;;21.90;100796.00;;;;2076391;28;20690;-49
2022/03/14 02:50:48;;;;;;;8.77;7.87;;;;;21.90;100800.00;;;;2071292;28;20249;-49
2022/03/14 02:51:50;;;;;;;9.00;8.20;;;;;21.90;100802.00;;;;2070591;28;20305;-49
2022/03/14 02:52:50;;;;;;;9.25;8.45;;;;;21.90;100806.00;;;;2070947;28;20759;-49
2022/03/14 02:53:51;;;;;;;8.67;7.83;;;;;21.90;100804.00;;;;2071066;28;20214;-49
2022/03/14 02:54:52;;;;;;;7.80;7.10;;;;;21.90;100811.00;;;;2070473;28;20214;-49
2022/03/14 02:55:52;;;;;;;8.35;7.55;;;;;21.80;100806.00;;;;2071732;28;20221;-49
2022/03/14 02:56:53;;;;;;;9.93;9.03;;;;;21.90;100806.00;;;;2076941;28;20734;-48
2022/03/14 02:57:53;;;;;;;10.00;9.00;;;;;21.80;100809.00;;;;2079340;28;20573;-48
2022/03/14 02:58:54;;;;;;;8.83;7.80;;;;;21.80;100811.00;;;;2079694;28;20237;-49
2022/03/14 02:59:56;;;;;;;8.10;7.30;;;;;21.80;100803.00;;;;2079769;28;20271;-49
2022/03/14 03:00:57;;;;;;;8.38;7.57;;;;;21.90;100814.00;;;;2079708;28;20237;-48
2022/03/14 03:01:57;;;;;;;8.23;7.50;;;;;21.90;100814.00;;;;2077057;28;20994;-49
2022/03/14 03:02:58;;;;;;;8.83;7.23;;;;;21.80;100817.00;;;;2079513;28;20210;-49
2022/03/14 03:03:58;;;;;;;9.00;8.20;;;;;21.80;100814.00;;;;2079725;28;20213;-49
2022/03/14 03:04:59;;;;;;;7.40;6.60;;;;;21.80;100816.00;;;;2079580;28;20217;-49
2022/03/14 03:06:00;;;;;;;7.47;6.77;;;;;21.80;100801.00;;;;2078680;28;20213;-49
2022/03/14 03:07:00;;;;;;;7.90;7.13;;;;;21.80;100808.00;;;;2077263;28;20464;-49
2022/03/14 03:08:01;;;;;;;7.77;7.07;;;;;21.80;100815.00;;;;2079229;28;20213;-49
2022/03/14 03:09:04;;;;;;;8.13;7.43;;;;;21.80;100821.00;;;;2073058;28;20245;-49
2022/03/14 03:10:07;;;;;;;7.05;6.35;;;;;21.80;100819.00;;;;2069555;28;20210;-49
2022/03/14 03:11:08;;;;;;;8.30;7.50;;;;;21.80;100820.00;;;;2076233;28;20217;-49
2022/03/14 03:12:12;;;;;;;8.32;7.47;;;;;21.80;100821.00;;;;2077562;28;20217;-49
2022/03/14 03:13:12;;;;;;;7.72;7.00;;;;;21.80;100833.00;;;;2074917;28;20644;-50
2022/03/14 03:14:13;;;;;;;8.13;7.33;;;;;21.80;100824.00;;;;2071724;28;20297;-50
2022/03/14 03:15:15;;;;;;;7.53;6.83;;;;;21.80;100830.00;;;;2071526;28;20261;-49
2022/03/14 03:16:16;;;;;;;7.47;6.80;;;;;21.80;100832.00;;;;2070721;28;20218;-49
2022/03/14 03:17:17;;;;;;;7.38;6.68;;;;;21.80;100834.00;;;;2070505;28;20207;-54
2022/03/14 03:18:18;;;;;;;7.43;6.70;;;;;21.80;100837.00;;;;2075919;28;20209;-48
2022/03/14 03:19:18;;;;;;;7.63;6.93;;;;;21.80;100838.00;;;;2079731;28;20655;-49
2022/03/14 03:20:19;;;;;;;8.03;7.23;;;;;21.80;100834.00;;;;2079517;28;20212;-49
2022/03/14 03:21:19;;;;;;;7.20;6.50;;;;;21.80;100844.00;;;;2079377;28;20224;-47
2022/03/14 03:22:20;;;;;;;6.93;6.23;;;;;21.80;100843.00;;;;2075245;28;20206;-49
2022/03/14 03:23:20;;;;;;;6.67;6.00;;;;;21.80;100847.00;;;;2076642;28;20214;-47
2022/03/14 03:24:20;;;;;;;7.13;6.50;;;;;21.70;100850.00;;;;2079526;28;20236;-49
2022/03/14 03:25:21;;;;;;;6.43;5.80;;;;;21.80;100851.00;;;;2078844;28;20218;-47
2022/03/14 03:26:21;;;;;;;6.90;6.20;;;;;21.80;100851.00;;;;2079247;28;20218;-49
2022/03/14 03:27:22;;;;;;;7.00;6.10;;;;;21.80;100851.00;;;;2077123;28;20673;-49
2022/03/14 03:28:22;;;;;;;6.40;5.80;;;;;21.80;100856.00;;;;2079615;28;20229;-49
2022/03/14 03:29:23;;;;;;;7.00;6.40;;;;;21.80;100852.00;;;;2079747;28;20681;-48
2022/03/14 03:30:24;;;;;;;6.53;5.93;;;;;21.80;100856.00;;;;2079551;28;20217;-49
2022/03/14 03:31:24;;;;;;;7.37;6.67;;;;;21.80;100857.00;;;;2079448;28;20201;-49
2022/03/14 03:32:25;;;;;;;6.30;5.70;;;;;21.80;100861.00;;;;2076057;28;20209;-48
2022/03/14 03:33:25;;;;;;;6.40;5.80;;;;;21.80;100857.00;;;;2078839;28;20221;-49
2022/03/14 03:34:25;;;;;;;6.93;6.23;;;;;21.80;100857.00;;;;2078731;28;20210;-49
2022/03/14 03:35:26;;;;;;;6.30;5.67;;;;;21.80;100865.00;;;;2069984;28;20221;-49
2022/03/14 03:36:26;;;;;;;7.40;6.57;;;;;21.80;100867.00;;;;2062123;28;20226;-49
2022/03/14 03:37:26;;;;;;;5.80;5.30;;;;;21.80;100862.00;;;;2076203;28;20280;-49
2022/03/14 03:38:27;;;;;;;6.63;6.03;;;;;21.80;100870.00;;;;2077279;28;20209;-49
2022/03/14 03:39:27;;;;;;;5.97;5.37;;;;;21.80;100870.00;;;;2079691;28;20739;-49
2022/03/14 03:40:28;;;;;;;6.83;6.23;;;;;21.80;100873.00;;;;2079245;28;20623;-49
2022/03/14 03:41:28;;;;;;;6.60;5.80;;;;;21.80;100872.00;;;;2079545;28;20210;-49
2022/03/14 03:42:28;;;;;;;6.70;6.10;;;;;21.80;100881.00;;;;2074195;28;20338;-49
2022/03/14 03:43:29;;;;;;;6.20;5.60;;;;;21.80;100877.00;;;;2074239;28;20214;-49
2022/03/14 03:44:29;;;;;;;6.00;5.43;;;;;21.80;100893.00;;;;2070961;28;20228;-48
2022/03/14 03:45:30;;;;;;;5.43;4.87;;;;;21.80;100880.00;;;;2068939;28;20705;-49
2022/03/14 03:46:30;;;;;;;6.00;5.50;;;;;21.80;100881.00;;;;2070608;28;20214;-49
2022/03/14 03:47:30;;;;;;;6.33;5.73;;;;;21.70;100883.00;;;;2060866;28;20221;-49
2022/03/14 03:48:31;;;;;;;6.53;5.93;;;;;21.80;100878.00;;;;2070255;28;20753;-49
2022/03/14 03:49:31;;;;;;;5.90;5.40;;;;;21.80;100886.00;;;;2070697;28;20210;-49
2022/03/14 03:50:32;;;;;;;6.00;5.40;;;;;21.70;100889.00;;;;2071029;28;20272;-47
2022/03/14 03:51:32;;;;;;;6.13;5.53;;;;;21.80;100886.00;;;;2070984;28;20214;-48
2022/03/14 03:52:32;;;;;;;5.60;5.00;;;;;21.80;100888.00;;;;2070718;28;20252;-49
2022/03/14 03:53:33;;;;;;;5.57;5.07;;;;;21.70;100881.00;;;;2063350;28;20404;-49
2022/03/14 03:54:33;;;;;;;6.17;5.43;;;;;21.80;100889.00;;;;2065266;28;20234;-49
2022/03/14 03:55:34;;;;;;;6.00;5.40;;;;;21.70;100898.00;;;;2065514;28;20248;-48
2022/03/14 03:56:35;;;;;;;5.77;5.27;;;;;21.80;100889.00;;;;2071485;28;20255;-49
2022/03/14 03:57:35;;;;;;;5.57;5.07;;;;;21.70;100899.00;;;;2070455;28;20218;-49
2022/03/14 03:58:36;;;;;;;5.53;5.03;;;;;21.80;100899.00;;;;2070686;28;20717;-50
2022/03/14 03:59:36;;;;;;;5.40;4.90;;;;;21.70;100899.00;;;;2070584;28;20298;-48
2022/03/14 04:00:36;;;;;;;5.90;5.30;;;;;21.70;100905.00;;;;2069033;28;20222;-48
2022/03/14 04:01:37;;;;;;;5.63;5.13;;;;;21.70;100903.00;;;;2070583;28;20220;-49
2022/03/14 04:02:39;;;;;;;6.03;5.43;;;;;21.70;100899.00;;;;2065511;28;20244;-49
2022/03/14 04:03:39;;;;;;;5.53;5.03;;;;;21.70;100911.00;;;;2069132;28;20637;-49
2022/03/14 04:04:40;;;;;;;5.30;4.80;;;;;21.70;100906.00;;;;2070585;28;20241;-48
2022/03/14 04:05:41;;;;;;;6.03;5.43;;;;;21.70;100912.00;;;;2070297;28;20272;-48
2022/03/14 04:06:42;;;;;;;6.20;4.77;;;;;21.70;100915.00;;;;2070988;28;20230;-49
2022/03/14 04:07:44;;;;;;;5.50;5.00;;;;;21.70;100906.00;;;;2071026;28;20511;-50
2022/03/14 04:08:44;;;;;;;4.68;4.28;;;;;21.70;100911.00;;;;2071222;28;20694;-50
2022/03/14 04:09:46;;;;;;;5.60;5.10;;;;;21.70;100905.00;;;;2070229;28;20211;-48
2022/03/14 04:10:53;;;;;;;6.00;5.25;;;;;21.70;100916.00;;;;2070791;28;20214;-49
2022/03/14 04:11:53;;;;;;;5.38;4.88;;;;;21.70;100911.00;;;;2073944;28;20228;-49
2022/03/14 04:12:54;;;;;;;5.07;4.67;;;;;21.70;100908.00;;;;2065259;28;20565;-49
2022/03/14 04:13:56;;;;;;;4.33;3.93;;;;;21.70;100913.00;;;;2070524;28;20257;-49
2022/03/14 04:14:58;;;;;;;4.70;4.30;;;;;21.70;100904.00;;;;2069226;28;20465;-49
2022/03/14 04:16:00;;;;;;;4.80;4.40;;;;;21.70;100908.00;;;;2069288;28;20309;-51
2022/03/14 04:17:00;;;;;;;5.50;5.00;;;;;21.70;100917.00;;;;2069990;28;20376;-48
2022/03/14 04:18:02;;;;;;;5.10;4.60;;;;;21.70;100916.00;;;;2075255;28;20347;-50
2022/03/14 04:19:02;;;;;;;4.30;3.90;;;;;21.70;100916.00;;;;2078336;28;20831;-49
2022/03/14 04:20:04;;;;;;;5.43;5.00;;;;;21.70;100911.00;;;;2075538;28;20378;-49
2022/03/14 04:21:04;;;;;;;4.72;4.25;;;;;21.70;100916.00;;;;2078307;28;20217;-49
2022/03/14 04:22:05;;;;;;;4.60;4.13;;;;;21.70;100916.00;;;;2078899;28;20241;-49
2022/03/14 04:23:05;;;;;;;4.73;4.33;;;;;21.70;100921.00;;;;2071366;28;20210;-49
2022/03/14 04:24:06;;;;;;;4.80;4.40;;;;;21.70;100918.00;;;;2070235;28;20346;-49
2022/03/14 04:25:07;;;;;;;4.03;3.73;;;;;21.70;100919.00;;;;2074077;28;20210;-49
2022/03/14 04:26:07;;;;;;;4.75;4.30;;;;;21.70;100922.00;;;;2070022;28;20554;-48
2022/03/14 04:27:08;;;;;;;4.87;4.47;;;;;21.70;100925.00;;;;2069981;28;20206;-49
2022/03/14 04:28:08;;;;;;;4.57;4.17;;;;;21.70;100924.00;;;;2075765;28;20694;-49
2022/03/14 04:29:09;;;;;;;5.00;4.50;;;;;21.70;100928.00;;;;2079222;28;20210;-49
2022/03/14 04:30:09;;;;;;;4.30;3.90;;;;;21.70;100927.00;;;;2078940;28;20209;-48
2022/03/14 04:31:10;;;;;;;4.40;4.00;;;;;21.70;100931.00;;;;2079093;28;20216;-49
2022/03/14 04:32:10;;;;;;;4.73;4.33;;;;;21.70;100931.00;;;;2075220;28;20209;-49
2022/03/14 04:33:10;;;;;;;4.50;4.10;;;;;21.70;100930.00;;;;2079284;28;20221;-49
2022/03/14 04:34:11;;;;;;;4.13;3.73;;;;;21.70;100935.00;;;;2078785;28;20219;-49
2022/03/14 04:35:12;;;;;;;4.27;3.87;;;;;21.70;100934.00;;;;2071731;28;20244;-49
2022/03/14 04:36:13;;;;;;;4.67;3.97;;;;;21.70;100931.00;;;;2071152;28;20233;-49
2022/03/14 04:37:14;;;;;;;3.92;3.58;;;;;21.70;100932.00;;;;2075905;28;20445;-49
2022/03/14 04:38:16;;;;;;;3.93;3.63;;;;;21.70;100940.00;;;;2078833;28;20217;-49
2022/03/14 04:39:17;;;;;;;4.22;3.83;;;;;21.70;100940.00;;;;2078933;28;20213;-48
2022/03/14 04:40:17;;;;;;;5.00;4.10;;;;;21.70;100941.00;;;;2079086;28;20641;-49
2022/03/14 04:41:18;;;;;;;4.27;3.90;;;;;21.70;100945.00;;;;2076662;28;20205;-48
2022/03/14 04:42:20;;;;;;;4.10;3.40;;;;;21.70;100936.00;;;;2077073;28;20219;-49
2022/03/14 04:43:24;;;;;;;4.40;4.00;;;;;21.70;100939.00;;;;2069910;28;20273;-49
2022/03/14 04:44:24;;;;;;;4.55;4.15;;;;;21.70;100942.00;;;;2073837;28;20831;-49
2022/03/14 04:45:25;;;;;;;4.30;3.90;;;;;21.70;100944.00;;;;2075379;28;20225;-49
2022/03/14 04:46:25;;;;;;;4.93;3.70;;;;;21.70;100945.00;;;;2078563;28;20233;-49
2022/03/14 04:47:26;;;;;;;4.13;3.83;;;;;21.60;100947.00;;;;2073479;28;20256;-49
2022/03/14 04:48:26;;;;;;;3.90;3.50;;;;;21.60;100950.00;;;;2070046;28;20214;-49
2022/03/14 04:49:27;;;;;;;4.27;3.53;;;;;21.60;100944.00;;;;2070256;28;20218;-49
2022/03/14 04:50:27;;;;;;;4.07;3.77;;;;;21.60;100951.00;;;;2077008;28;20267;-49
2022/03/14 04:51:28;;;;;;;4.10;3.70;;;;;21.60;100952.00;;;;2078217;28;20217;-48
2022/03/14 04:52:28;;;;;;;3.97;3.67;;;;;21.60;100939.00;;;;2076373;28;20783;-49
2022/03/14 04:53:29;;;;;;;4.10;3.77;;;;;21.60;100947.00;;;;2078170;28;20229;-49
2022/03/14 04:54:29;;;;;;;4.30;3.90;;;;;21.60;100948.00;;;;2074599;28;20221;-49
2022/03/14 04:55:29;;;;;;;4.13;3.73;;;;;21.60;100949.00;;;;2069629;28;20221;-48
2022/03/14 04:56:30;;;;;;;3.83;3.43;;;;;21.60;100952.00;;;;2078198;28;20319;-49